Terminal Aerodrome Forecast
Issued by NWS New Orleans/Baton Rouge, LA

Home | Current Version | Previous Version | Text Only | Print | Product List | Glossary On
Versions: 1 2 3 4 5 6 7 8 9 10 11 12 13 14 15 16 17 18 19 20 21 22 23 24 25 26
000
FTUS44 KLIX 280906 AAB
TAFBTR
TAF AMD
KBTR 280906Z 2809/2906 VRB03KT 5SM BR BKN015 OVC025
     FM281100 17005KT 3SM BR BKN008
     FM281400 19005KT P6SM BKN015
     FM281500 19005KT P6SM BKN030
     FM281600 19005KT P6SM BKN045=

USA.gov is the U.S. government's official web portal to all federal, state and local government web resources and services.